Time;durP1;ratioP1;P1;durP2;ratioP2;P2;SDS_P1;SDS_P2;PMS_P1;PMS_P2;Temp;Humidity;BMP_temperature;BMP_pressure;BME280_temperature;BME280_humidity;BME280_pressure;Samples;Min_cycle;Max_cycle;Signal;HPM_P1;HPM_P2
2023/10/12 00:00:47;;;;;;;0.10;0.10;;;13.50;99.90;;;;;;5082177;28;20067;-64
2023/10/12 00:03:13;;;;;;;0.55;0.55;;;13.40;99.90;;;;;;5105867;27;20608;-64
2023/10/12 00:05:45;;;;;;;0.30;0.30;;;13.40;99.90;;;;;;5080605;28;20118;-65
2023/10/12 00:08:23;;;;;;;4.97;0.45;;;13.40;99.90;;;;;;5080106;28;20473;-64
2023/10/12 00:10:50;;;;;;;1.67;1.55;;;13.50;99.90;;;;;;5077431;28;20125;-65
2023/10/12 00:13:20;;;;;;;0.10;0.10;;;13.50;99.90;;;;;;5106538;27;20489;-64
2023/10/12 00:15:46;;;;;;;0.88;0.30;;;13.40;99.90;;;;;;5077751;28;20055;-65
2023/10/12 00:18:14;;;;;;;0.43;0.40;;;13.40;99.90;;;;;;5076610;28;20469;-65
2023/10/12 00:20:43;;;;;;;0.10;0.10;;;13.40;99.90;;;;;;5092845;27;20115;-65
2023/10/12 00:23:09;;;;;;;0.00;0.00;;;13.30;99.90;;;;;;5109498;27;20044;-65
2023/10/12 00:25:59;;;;;;;0.10;0.10;;;13.40;99.90;;;;;;5100178;27;20035;-65
2023/10/12 00:28:37;;;;;;;0.03;0.03;;;13.30;99.90;;;;;;5085016;28;20028;-65
2023/10/12 00:31:05;;;;;;;0.00;0.00;;;13.30;99.90;;;;;;5112309;27;20036;-65
2023/10/12 00:33:31;;;;;;;0.22;0.22;;;13.30;99.90;;;;;;5075711;28;20042;-65
2023/10/12 00:36:01;;;;;;;0.10;0.10;;;13.30;99.90;;;;;;5080172;28;20057;-65
2023/10/12 00:38:30;;;;;;;0.10;0.10;;;13.30;99.90;;;;;;5079516;28;20051;-65
2023/10/12 00:41:04;;;;;;;0.68;0.68;;;13.30;99.90;;;;;;5111135;27;20044;-65
2023/10/12 00:43:38;;;;;;;1.55;0.47;;;13.30;99.90;;;;;;5088753;28;20095;-65
2023/10/12 00:46:20;;;;;;;0.17;0.13;;;13.20;99.90;;;;;;5111934;27;20038;-66
2023/10/12 00:48:56;;;;;;;0.47;0.47;;;13.20;99.90;;;;;;5076134;28;20044;-65
2023/10/12 00:51:22;;;;;;;0.47;0.47;;;13.20;99.90;;;;;;5086557;28;20382;-66
2023/10/12 00:53:58;;;;;;;0.00;0.00;;;13.20;99.90;;;;;;5079766;28;20044;-65
2023/10/12 00:56:25;;;;;;;0.08;0.08;;;13.10;99.90;;;;;;5100155;28;20036;-66
2023/10/12 00:58:51;;;;;;;0.40;0.30;;;13.10;99.90;;;;;;5079771;28;20047;-66
2023/10/12 01:01:18;;;;;;;0.10;0.10;;;13.10;99.90;;;;;;5077508;28;20039;-65
2023/10/12 01:03:45;;;;;;;0.10;0.10;;;13.10;99.90;;;;;;5101360;28;20040;-65
2023/10/12 01:08:46;;;;;;;0.35;0.35;;;13.10;99.90;;;;;;5089299;28;20122;-66
2023/10/12 01:11:20;;;;;;;0.40;0.35;;;13.10;99.90;;;;;;5106342;28;20035;-66
2023/10/12 01:14:12;;;;;;;0.00;0.00;;;13.20;99.90;;;;;;5085131;28;20040;-66
2023/10/12 01:16:54;;;;;;;0.00;0.00;;;13.10;99.90;;;;;;5082215;28;20528;-66
2023/10/12 01:19:23;;;;;;;0.20;0.20;;;13.10;99.90;;;;;;5119934;27;20496;-66
2023/10/12 01:22:05;;;;;;;0.00;0.00;;;13.10;99.90;;;;;;5090090;28;20040;-67
2023/10/12 01:24:30;;;;;;;0.10;0.10;;;13.10;99.90;;;;;;5120341;27;21458;-67
2023/10/12 01:26:56;;;;;;;0.10;0.10;;;13.10;99.90;;;;;;5085968;28;20047;-66
2023/10/12 01:29:25;;;;;;;0.00;0.00;;;13.10;99.90;;;;;;5117880;27;20115;-67
2023/10/12 01:32:20;;;;;;;0.10;0.10;;;13.10;99.90;;;;;;5084276;28;20494;-67
2023/10/12 01:34:48;;;;;;;0.00;0.00;;;13.10;99.90;;;;;;5089832;28;20456;-67
2023/10/12 01:37:25;;;;;;;0.00;0.00;;;13.10;99.90;;;;;;5102829;28;20375;-67
2023/10/12 01:45:04;;;;;;;0.00;0.00;;;12.90;99.90;;;;;;5088365;28;20043;-67
2023/10/12 01:47:30;;;;;;;0.10;0.10;;;13.00;99.90;;;;;;5080916;28;20106;-67
2023/10/12 01:50:00;;;;;;;0.10;0.10;;;12.90;99.90;;;;;;5087730;28;20036;-67
2023/10/12 01:52:26;;;;;;;0.00;0.00;;;13.00;99.90;;;;;;5082298;28;20054;-66
2023/10/12 01:54:52;;;;;;;0.20;0.10;;;12.90;99.90;;;;;;5082594;28;20032;-67
2023/10/12 01:57:29;;;;;;;0.03;0.03;;;12.90;99.90;;;;;;5086148;28;20070;-66
2023/10/12 01:59:58;;;;;;;0.10;0.10;;;12.90;99.90;;;;;;5088205;28;20042;-66
2023/10/12 02:02:24;;;;;;;0.10;0.10;;;12.90;99.90;;;;;;5082545;28;20070;-66
2023/10/12 02:04:51;;;;;;;0.52;0.20;;;13.00;99.90;;;;;;5085748;28;20043;-67
2023/10/12 02:07:17;;;;;;;0.00;0.00;;;12.90;99.90;;;;;;5083767;28;20117;-66
2023/10/12 02:09:44;;;;;;;6.60;0.30;;;12.90;99.90;;;;;;5088753;28;20044;-66
2023/10/12 02:12:12;;;;;;;0.00;0.00;;;12.90;99.90;;;;;;5085645;28;20043;-67
2023/10/12 02:14:40;;;;;;;0.60;0.60;;;12.90;99.90;;;;;;5079863;28;20088;-67
2023/10/12 02:17:08;;;;;;;0.00;0.00;;;12.90;99.90;;;;;;5083956;28;20115;-67
2023/10/12 02:19:41;;;;;;;5.28;0.50;;;12.90;99.90;;;;;;5085946;28;20051;-67
2023/10/12 02:22:23;;;;;;;0.10;0.10;;;12.90;99.90;;;;;;5084536;28;20042;-67
2023/10/12 02:24:51;;;;;;;0.10;0.10;;;12.80;99.90;;;;;;5115528;27;20044;-66
2023/10/12 02:27:17;;;;;;;0.10;0.10;;;12.80;99.90;;;;;;5099854;28;20056;-67
2023/10/12 02:29:48;;;;;;;0.20;0.20;;;12.80;99.90;;;;;;5085816;28;20044;-66
2023/10/12 02:32:24;;;;;;;0.65;0.40;;;12.80;99.90;;;;;;5088088;28;20070;-66
2023/10/12 02:34:55;;;;;;;0.08;0.08;;;12.80;99.90;;;;;;5117332;27;20050;-66
2023/10/12 02:37:24;;;;;;;0.10;0.10;;;12.70;99.90;;;;;;5086581;28;20039;-67
2023/10/12 02:39:53;;;;;;;0.10;0.10;;;12.80;99.90;;;;;;5117746;27;20063;-66
2023/10/12 02:42:22;;;;;;;0.10;0.10;;;12.80;99.90;;;;;;5084104;28;20043;-66
2023/10/12 02:47:29;;;;;;;4.28;0.35;;;12.80;99.90;;;;;;5084255;28;20056;-66
2023/10/12 02:50:00;;;;;;;0.03;0.03;;;12.80;99.90;;;;;;5088392;28;20047;-67
2023/10/12 02:52:31;;;;;;;0.20;0.20;;;12.80;99.90;;;;;;5085679;28;20409;-66
2023/10/12 02:55:06;;;;;;;0.10;0.10;;;12.80;99.90;;;;;;5067569;28;20072;-66
2023/10/12 02:57:32;;;;;;;0.08;0.08;;;12.80;99.90;;;;;;5120070;27;20044;-67
2023/10/12 03:00:14;;;;;;;0.10;0.10;;;12.90;99.90;;;;;;5102491;28;20371;-66
2023/10/12 03:02:42;;;;;;;0.00;0.00;;;12.80;99.90;;;;;;5077033;28;20032;-66
2023/10/12 03:05:08;;;;;;;0.35;0.35;;;12.80;99.90;;;;;;5117778;27;20133;-67
2023/10/12 03:07:39;;;;;;;0.17;0.17;;;12.80;99.90;;;;;;5084912;28;20044;-66
2023/10/12 03:10:07;;;;;;;0.93;0.55;;;12.80;99.90;;;;;;5083015;28;20403;-66
2023/10/12 03:12:41;;;;;;;0.25;0.10;;;12.80;99.90;;;;;;5077975;28;20092;-66
2023/10/12 03:15:13;;;;;;;0.10;0.10;;;12.80;99.90;;;;;;5085340;28;20501;-66
2023/10/12 03:17:45;;;;;;;0.00;0.00;;;12.80;99.90;;;;;;5118884;27;20347;-66
2023/10/12 03:20:19;;;;;;;0.88;0.20;;;12.80;99.90;;;;;;5084976;28;20163;-66
2023/10/12 03:22:47;;;;;;;0.20;0.20;;;12.80;99.90;;;;;;5087813;28;20131;-66
2023/10/12 03:25:42;;;;;;;0.00;0.00;;;12.80;99.90;;;;;;5080247;28;20138;-66
2023/10/12 03:27:58;;;;;;;1.55;0.28;;;12.80;99.90;;;;;;5082903;28;20044;-66
2023/10/12 03:30:34;;;;;;;0.00;0.00;;;12.70;99.90;;;;;;5087353;28;20071;-66
2023/10/12 03:33:02;;;;;;;0.10;0.10;;;12.70;99.90;;;;;;5083463;28;20422;-66
2023/10/12 03:35:33;;;;;;;0.10;0.10;;;12.80;99.90;;;;;;5084066;28;20035;-66
2023/10/12 03:38:01;;;;;;;0.10;0.10;;;12.80;99.90;;;;;;5081656;28;20052;-66
2023/10/12 03:43:28;;;;;;;0.55;0.17;;;12.70;99.90;;;;;;5056124;28;20048;-66
2023/10/12 03:49:24;;;;;;;0.40;0.15;;;12.90;99.90;;;;;;5079043;27;20050;-66
2023/10/12 03:53:46;;;;;;;0.10;0.10;;;12.80;99.90;;;;;;5072676;28;20712;-66
2023/10/12 03:56:15;;;;;;;1.58;1.48;;;12.80;99.90;;;;;;5079826;28;20075;-66
2023/10/12 03:58:47;;;;;;;0.08;0.08;;;12.80;99.90;;;;;;5083881;28;20044;-67
2023/10/12 04:01:22;;;;;;;1.00;0.22;;;12.80;99.90;;;;;;5079561;28;20416;-67
2023/10/12 04:03:58;;;;;;;0.10;0.10;;;12.80;99.90;;;;;;5086900;28;20093;-67
2023/10/12 04:06:29;;;;;;;0.35;0.32;;;12.70;99.90;;;;;;5082359;28;20747;-67
2023/10/12 04:08:58;;;;;;;0.17;0.17;;;12.70;99.90;;;;;;5078711;28;20051;-66
2023/10/12 04:14:43;;;;;;;0.10;0.10;;;12.80;99.90;;;;;;5082395;28;20185;-67
2023/10/12 04:17:41;;;;;;;0.22;0.20;;;12.90;99.90;;;;;;5080569;28;20039;-67
2023/10/12 04:27:58;;;;;;;0.10;0.10;;;12.80;99.90;;;;;;5077524;28;20063;-67
2023/10/12 04:30:32;;;;;;;0.15;0.15;;;12.80;99.90;;;;;;5084570;28;20536;-66
2023/10/12 04:33:20;;;;;;;0.10;0.10;;;12.80;99.90;;;;;;5083160;28;20086;-67
2023/10/12 04:41:23;;;;;;;0.10;0.10;;;12.90;99.90;;;;;;5077592;27;20470;-66
2023/10/12 04:44:03;;;;;;;0.10;0.10;;;12.80;99.90;;;;;;5089590;28;20544;-66
2023/10/12 04:46:38;;;;;;;0.30;0.30;;;12.80;99.90;;;;;;5115448;27;20119;-67
2023/10/12 04:51:41;;;;;;;0.10;0.10;;;12.80;99.90;;;;;;5086273;28;20035;-67
2023/10/12 04:54:26;;;;;;;0.10;0.10;;;12.80;99.90;;;;;;5087614;28;20039;-67
2023/10/12 04:57:13;;;;;;;0.10;0.10;;;12.80;99.90;;;;;;5116436;27;20050;-67
2023/10/12 05:00:00;;;;;;;0.20;0.20;;;12.80;99.90;;;;;;5105579;28;20043;-66
2023/10/12 05:02:41;;;;;;;0.10;0.10;;;12.80;99.90;;;;;;5085825;28;20430;-67
2023/10/12 05:07:53;;;;;;;0.43;0.10;;;12.80;99.90;;;;;;5088445;28;20048;-67
2023/10/12 05:10:26;;;;;;;0.00;0.00;;;12.70;99.90;;;;;;5120802;28;20047;-67
2023/10/12 05:12:52;;;;;;;0.10;0.10;;;12.70;99.90;;;;;;5112348;28;20044;-67
2023/10/12 05:15:20;;;;;;;0.20;0.20;;;12.70;99.90;;;;;;5087633;28;20054;-67
2023/10/12 05:17:46;;;;;;;0.00;0.00;;;12.80;99.90;;;;;;5111889;27;20047;-67
2023/10/12 05:20:12;;;;;;;0.10;0.10;;;12.80;99.90;;;;;;5119388;28;20138;-67
2023/10/12 05:22:37;;;;;;;0.10;0.10;;;12.80;99.90;;;;;;5090568;28;20043;-67
2023/10/12 05:25:04;;;;;;;0.00;0.00;;;12.80;99.90;;;;;;5089415;28;20040;-67
2023/10/12 05:27:38;;;;;;;0.50;0.20;;;12.70;99.90;;;;;;5085153;28;20043;-67
2023/10/12 05:30:14;;;;;;;0.22;0.10;;;12.80;99.90;;;;;;5089984;28;20499;-67
2023/10/12 05:32:55;;;;;;;0.10;0.10;;;12.80;99.90;;;;;;5089719;28;20416;-67
2023/10/12 05:35:46;;;;;;;0.05;0.05;;;12.80;99.90;;;;;;5091492;28;20092;-67
2023/10/12 05:38:07;;;;;;;0.00;0.00;;;12.80;99.90;;;;;;5085890;28;20051;-67
2023/10/12 05:40:35;;;;;;;0.00;0.00;;;12.70;99.90;;;;;;5094882;28;20039;-67
2023/10/12 05:43:09;;;;;;;0.10;0.10;;;12.70;99.90;;;;;;5090246;28;20156;-67
2023/10/12 05:45:34;;;;;;;0.10;0.10;;;12.60;99.90;;;;;;5089676;28;20054;-67
2023/10/12 05:48:00;;;;;;;0.10;0.10;;;12.60;99.90;;;;;;5074510;28;20386;-67
2023/10/12 05:50:28;;;;;;;0.10;0.10;;;12.60;99.90;;;;;;5091364;28;20044;-67
2023/10/12 05:52:59;;;;;;;0.10;0.10;;;12.60;99.90;;;;;;5088834;28;20047;-67
2023/10/12 05:55:25;;;;;;;0.15;0.15;;;12.60;99.90;;;;;;5096261;28;20489;-67
2023/10/12 05:57:51;;;;;;;0.10;0.10;;;12.60;99.90;;;;;;5094547;28;20050;-67
2023/10/12 06:00:35;;;;;;;0.05;0.05;;;12.60;99.90;;;;;;5091694;28;20570;-67
2023/10/12 06:03:05;;;;;;;0.10;0.10;;;12.60;99.90;;;;;;5093386;28;20497;-67
2023/10/12 06:05:34;;;;;;;0.52;0.20;;;12.60;99.90;;;;;;5094523;28;20036;-67
2023/10/12 06:08:05;;;;;;;0.00;0.00;;;12.60;99.90;;;;;;5094802;28;20152;-67
2023/10/12 06:10:33;;;;;;;0.10;0.10;;;12.60;99.90;;;;;;5089583;28;20493;-67
2023/10/12 06:12:59;;;;;;;0.13;0.13;;;12.60;99.90;;;;;;5090747;28;20473;-67
2023/10/12 06:15:25;;;;;;;0.40;0.40;;;12.60;99.90;;;;;;5095040;28;20067;-67
2023/10/12 06:17:54;;;;;;;0.20;0.20;;;12.60;99.90;;;;;;5085165;28;20099;-67
2023/10/12 06:20:30;;;;;;;0.17;0.13;;;12.70;99.90;;;;;;5092856;28;20059;-67
2023/10/12 06:22:56;;;;;;;0.10;0.10;;;12.70;99.90;;;;;;5093561;28;20176;-67
2023/10/12 06:25:23;;;;;;;0.25;0.25;;;12.70;99.90;;;;;;5094541;28;20135;-67
2023/10/12 06:27:49;;;;;;;0.10;0.10;;;12.60;99.90;;;;;;5093214;28;20048;-67
2023/10/12 06:30:18;;;;;;;0.10;0.10;;;12.70;99.90;;;;;;5094836;28;20043;-67
2023/10/12 06:32:47;;;;;;;0.10;0.10;;;12.70;99.90;;;;;;5091317;28;20047;-67
2023/10/12 06:35:23;;;;;;;0.20;0.20;;;12.70;99.90;;;;;;5095206;28;20059;-67
2023/10/12 06:37:49;;;;;;;0.10;0.10;;;12.70;99.90;;;;;;5094293;28;20398;-67
2023/10/12 06:45:51;;;;;;;0.30;0.30;;;12.90;99.90;;;;;;5094260;28;20047;-67
2023/10/12 06:48:33;;;;;;;14.27;2.25;;;12.90;99.90;;;;;;5126675;27;20051;-67
2023/10/12 06:51:03;;;;;;;0.95;0.40;;;12.90;99.90;;;;;;5088876;28;20043;-67
2023/10/12 06:53:34;;;;;;;0.00;0.00;;;12.90;99.90;;;;;;5094047;28;20044;-67
2023/10/12 06:56:16;;;;;;;0.20;0.20;;;12.90;99.90;;;;;;5095329;28;20101;-67
2023/10/12 07:01:52;;;;;;;0.10;0.10;;;12.90;99.90;;;;;;5126201;27;20409;-67
2023/10/12 07:04:21;;;;;;;0.10;0.10;;;12.90;99.90;;;;;;5091678;28;20043;-67
2023/10/12 07:06:57;;;;;;;0.10;0.10;;;13.00;99.90;;;;;;5107293;28;20367;-67
2023/10/12 07:09:46;;;;;;;0.10;0.10;;;12.90;99.90;;;;;;5128004;27;20478;-67
2023/10/12 07:12:19;;;;;;;0.00;0.00;;;13.00;99.90;;;;;;5092820;28;20037;-67
2023/10/12 07:14:53;;;;;;;0.13;0.13;;;13.10;99.90;;;;;;5086866;28;20071;-66
2023/10/12 07:17:19;;;;;;;0.20;0.20;;;13.10;99.90;;;;;;5084355;28;20044;-66
2023/10/12 07:19:49;;;;;;;0.00;0.00;;;13.10;99.90;;;;;;5093380;28;20051;-67
2023/10/12 07:22:15;;;;;;;0.10;0.10;;;13.10;99.90;;;;;;5089904;28;20039;-66
2023/10/12 07:24:42;;;;;;;0.00;0.00;;;13.20;99.90;;;;;;5093127;28;20559;-66
2023/10/12 07:27:13;;;;;;;0.90;0.35;;;13.20;99.90;;;;;;5091798;28;20039;-66
2023/10/12 07:29:44;;;;;;;0.10;0.10;;;13.40;99.90;;;;;;5092954;28;20043;-66
2023/10/12 07:34:56;;;;;;;0.20;0.10;;;13.50;99.90;;;;;;5093239;28;20131;-66
2023/10/12 07:37:22;;;;;;;0.00;0.00;;;13.60;99.90;;;;;;5088510;28;20051;-67
2023/10/12 07:39:50;;;;;;;0.30;0.30;;;13.60;99.90;;;;;;5089387;28;20049;-66
2023/10/12 07:42:25;;;;;;;0.10;0.10;;;13.60;99.90;;;;;;5088027;28;20096;-66
2023/10/12 07:44:54;;;;;;;0.10;0.10;;;13.60;99.90;;;;;;5093066;28;20043;-67
2023/10/12 07:47:41;;;;;;;0.00;0.00;;;13.80;99.90;;;;;;5087103;28;20101;-67
2023/10/12 07:50:13;;;;;;;0.00;0.00;;;13.80;99.90;;;;;;5125835;27;20046;-67
2023/10/12 07:52:48;;;;;;;0.10;0.10;;;13.80;99.90;;;;;;5090384;28;20040;-67
2023/10/12 07:55:18;;;;;;;0.00;0.00;;;13.90;99.90;;;;;;5091963;28;20050;-66
2023/10/12 07:57:47;;;;;;;0.20;0.10;;;14.00;99.90;;;;;;5089223;28;20512;-66
2023/10/12 08:13:16;;;;;;;0.00;0.00;;;14.00;99.90;;;;;;5091777;28;20463;-68
2023/10/12 08:15:49;;;;;;;0.03;0.03;;;14.00;99.90;;;;;;5090376;28;20063;-68
2023/10/12 08:21:08;;;;;;;0.20;0.20;;;14.00;99.90;;;;;;5090774;28;20044;-68
2023/10/12 08:23:35;;;;;;;0.10;0.10;;;14.00;99.90;;;;;;5116274;27;20035;-68
2023/10/12 08:26:02;;;;;;;0.10;0.10;;;13.90;99.90;;;;;;5092750;28;20036;-68
2023/10/12 08:28:36;;;;;;;0.10;0.10;;;14.00;99.90;;;;;;5091351;28;20040;-68
2023/10/12 08:31:06;;;;;;;0.00;0.00;;;13.90;99.90;;;;;;5090484;28;20039;-69
2023/10/12 08:33:49;;;;;;;0.10;0.10;;;13.80;99.90;;;;;;5085451;28;20041;-69
2023/10/12 08:38:52;;;;;;;0.10;0.10;;;13.90;99.90;;;;;;5082661;28;20126;-69
2023/10/12 08:44:04;;;;;;;0.38;0.20;;;13.90;99.90;;;;;;5110977;27;20050;-70
2023/10/12 08:46:56;;;;;;;0.15;0.15;;;13.90;99.90;;;;;;5093776;28;20043;-70
2023/10/12 08:49:34;;;;;;;0.00;0.00;;;13.90;99.90;;;;;;5083472;28;20042;-71
2023/10/12 08:52:14;;;;;;;0.10;0.10;;;13.90;99.90;;;;;;5073284;28;20050;-70
2023/10/12 08:54:43;;;;;;;0.00;0.00;;;13.90;99.90;;;;;;5091083;28;20036;-70
2023/10/12 08:57:19;;;;;;;0.10;0.10;;;13.90;99.90;;;;;;5117843;27;20528;-71
2023/10/12 09:00:19;;;;;;;0.40;0.40;;;13.90;99.90;;;;;;5125252;27;20052;-71
2023/10/12 09:02:53;;;;;;;0.00;0.00;;;13.90;99.90;;;;;;5061982;28;20068;-71
2023/10/12 09:05:24;;;;;;;0.00;0.00;;;14.00;99.90;;;;;;5081018;28;20059;-71
2023/10/12 09:08:06;;;;;;;0.10;0.10;;;14.00;99.90;;;;;;5086893;28;20059;-71
2023/10/12 09:10:56;;;;;;;0.28;0.28;;;14.00;99.90;;;;;;5091643;28;20043;-71
2023/10/12 09:13:25;;;;;;;0.10;0.10;;;14.00;99.90;;;;;;5084246;28;20386;-70
2023/10/12 09:15:55;;;;;;;0.10;0.10;;;14.00;99.90;;;;;;5089900;28;20510;-72
2023/10/12 09:18:30;;;;;;;0.00;0.00;;;14.00;99.90;;;;;;5086030;28;20117;-71
2023/10/12 09:23:31;;;;;;;0.00;0.00;;;14.10;99.90;;;;;;5085911;28;20051;-70
2023/10/12 09:31:48;;;;;;;0.10;0.10;;;14.10;99.90;;;;;;5106585;28;20508;-70
2023/10/12 09:36:43;;;;;;;0.00;0.00;;;14.30;99.90;;;;;;5093617;28;20043;-70
2023/10/12 09:39:14;;;;;;;0.10;0.10;;;14.40;99.90;;;;;;5089855;28;20576;-70
2023/10/12 09:41:42;;;;;;;0.03;0.03;;;14.50;99.90;;;;;;5085944;28;20104;-69
2023/10/12 09:44:11;;;;;;;0.10;0.10;;;14.50;99.90;;;;;;5090639;28;20070;-69
2023/10/12 09:46:46;;;;;;;0.13;0.10;;;14.60;99.90;;;;;;5107638;28;20052;-67
2023/10/12 09:49:24;;;;;;;0.10;0.10;;;14.70;99.90;;;;;;5116723;27;20036;-67
2023/10/12 09:51:54;;;;;;;0.20;0.20;;;14.80;99.90;;;;;;5093564;28;20032;-67
2023/10/12 09:54:45;;;;;;;0.10;0.10;;;14.90;99.90;;;;;;5094488;28;20059;-67
2023/10/12 09:57:27;;;;;;;0.00;0.00;;;15.00;99.90;;;;;;5092935;28;20046;-68
2023/10/12 09:59:59;;;;;;;0.00;0.00;;;15.00;99.90;;;;;;5094070;28;20043;-67
2023/10/12 10:02:28;;;;;;;0.20;0.20;;;15.10;99.90;;;;;;5093796;28;20074;-67
2023/10/12 10:05:01;;;;;;;0.35;0.20;;;15.00;99.90;;;;;;5084120;28;20036;-68
2023/10/12 10:07:36;;;;;;;0.10;0.10;;;15.00;99.90;;;;;;5095229;28;20036;-67
2023/10/12 10:10:16;;;;;;;0.10;0.10;;;15.00;99.90;;;;;;5093147;28;20027;-67
2023/10/12 10:12:42;;;;;;;0.20;0.20;;;14.90;99.90;;;;;;5092435;28;20031;-68
2023/10/12 10:15:20;;;;;;;2.20;0.10;;;15.00;99.90;;;;;;5089548;28;20124;-67
2023/10/12 10:17:52;;;;;;;0.00;0.00;;;15.00;99.90;;;;;;5085595;28;20445;-69
2023/10/12 10:22:59;;;;;;;0.00;0.00;;;15.00;99.90;;;;;;5119994;27;20047;-68
2023/10/12 10:25:33;;;;;;;0.00;0.00;;;15.10;99.90;;;;;;5084483;28;20048;-67
2023/10/12 10:28:06;;;;;;;0.03;0.03;;;15.10;99.90;;;;;;5086575;28;20347;-68
2023/10/12 10:30:40;;;;;;;0.10;0.10;;;15.20;99.90;;;;;;5093274;28;20165;-66
2023/10/12 10:33:12;;;;;;;0.38;0.38;;;15.20;99.90;;;;;;5085014;28;20039;-66
2023/10/12 10:36:12;;;;;;;0.10;0.10;;;15.20;99.90;;;;;;5086999;28;20039;-67
2023/10/12 10:38:53;;;;;;;0.00;0.00;;;15.30;99.90;;;;;;5119921;27;20054;-67
2023/10/12 10:41:38;;;;;;;0.00;0.00;;;15.30;99.90;;;;;;5087559;28;20444;-66
2023/10/12 10:44:08;;;;;;;0.20;0.20;;;15.20;99.90;;;;;;5090669;28;20046;-66
2023/10/12 10:46:39;;;;;;;0.10;0.10;;;15.20;99.90;;;;;;5092799;28;20295;-67
2023/10/12 10:49:06;;;;;;;0.00;0.00;;;15.10;99.90;;;;;;5081013;28;20044;-66
2023/10/12 10:51:32;;;;;;;0.10;0.10;;;15.00;99.90;;;;;;5093720;28;20051;-66
2023/10/12 10:53:58;;;;;;;0.10;0.10;;;14.90;99.90;;;;;;5085239;28;20040;-66
2023/10/12 10:56:38;;;;;;;0.20;0.20;;;14.90;99.90;;;;;;5124953;27;20036;-67
2023/10/12 10:59:06;;;;;;;0.00;0.00;;;14.90;99.90;;;;;;5090424;28;20118;-66
2023/10/12 11:01:32;;;;;;;3.92;0.15;;;14.90;99.90;;;;;;5093365;28;20044;-67
2023/10/12 11:03:58;;;;;;;1.13;0.10;;;14.90;99.90;;;;;;5084596;28;20048;-67
2023/10/12 11:06:27;;;;;;;0.10;0.10;;;15.00;99.90;;;;;;5085652;28;20046;-66
2023/10/12 11:09:13;;;;;;;0.00;0.00;;;15.00;99.90;;;;;;5084732;28;20113;-66
2023/10/12 11:11:45;;;;;;;0.30;0.30;;;15.00;99.90;;;;;;5087384;28;20028;-66
2023/10/12 11:14:14;;;;;;;0.20;0.20;;;15.10;99.90;;;;;;5085832;28;20074;-67
2023/10/12 11:16:45;;;;;;;0.10;0.10;;;15.10;99.90;;;;;;5086956;28;20145;-66
2023/10/12 11:19:12;;;;;;;1.23;0.45;;;15.10;99.90;;;;;;5082090;28;20031;-67
2023/10/12 11:21:46;;;;;;;0.17;0.17;;;15.10;99.90;;;;;;5085014;28;20043;-69
2023/10/12 11:24:13;;;;;;;0.10;0.10;;;15.10;99.90;;;;;;5093218;28;20050;-67
2023/10/12 11:26:57;;;;;;;0.00;0.00;;;15.00;99.90;;;;;;5091706;28;20043;-67
2023/10/12 11:29:24;;;;;;;2.85;0.10;;;15.00;99.90;;;;;;5091718;28;20413;-67
2023/10/12 11:32:10;;;;;;;0.00;0.00;;;15.00;99.90;;;;;;5092772;28;20114;-67
2023/10/12 11:34:53;;;;;;;0.32;0.10;;;15.00;99.90;;;;;;5080679;28;20096;-67
2023/10/12 11:37:19;;;;;;;;;;;15.00;99.90;;;;;;5117470;27;20039;-67
2023/10/12 11:39:47;;;;;;;0.10;0.10;;;14.90;99.90;;;;;;5124138;27;20445;-67
2023/10/12 11:42:13;;;;;;;0.00;0.00;;;14.90;99.90;;;;;;5092127;28;20096;-67
2023/10/12 11:44:43;;;;;;;0.10;0.10;;;14.90;99.90;;;;;;5091888;28;20110;-67
2023/10/12 11:47:23;;;;;;;0.00;0.00;;;14.90;99.90;;;;;;5092837;28;20035;-66
2023/10/12 11:49:50;;;;;;;0.00;0.00;;;15.00;99.90;;;;;;5120443;27;20394;-67
2023/10/12 11:52:29;;;;;;;0.00;0.00;;;15.00;99.90;;;;;;5092437;28;20035;-66
2023/10/12 11:54:59;;;;;;;0.00;0.00;;;15.10;99.90;;;;;;5079240;28;20044;-67
2023/10/12 11:57:27;;;;;;;0.00;0.00;;;15.00;99.90;;;;;;5073663;28;20039;-67
2023/10/12 11:59:52;;;;;;;0.52;0.20;;;15.00;99.90;;;;;;5072833;28;20459;-67
2023/10/12 12:02:19;;;;;;;0.00;0.00;;;15.00;99.90;;;;;;5086394;28;20075;-66
2023/10/12 12:04:45;;;;;;;0.10;0.10;;;14.90;99.90;;;;;;5092646;28;20127;-66
2023/10/12 12:07:13;;;;;;;0.15;0.15;;;14.80;99.90;;;;;;5093979;28;20539;-66
2023/10/12 12:09:39;;;;;;;0.32;0.08;;;14.70;99.90;;;;;;5089854;28;20047;-66
2023/10/12 12:12:07;;;;;;;2.08;0.75;;;14.60;99.90;;;;;;5093446;28;20097;-66
2023/10/12 12:14:33;;;;;;;0.10;0.10;;;14.60;99.90;;;;;;5091606;28;20040;-66
2023/10/12 12:17:01;;;;;;;2.75;0.35;;;14.50;99.90;;;;;;5092698;28;20082;-68
2023/10/12 12:19:26;;;;;;;1.02;0.10;;;14.50;99.90;;;;;;5090057;28;20042;-69
2023/10/12 12:21:53;;;;;;;0.00;0.00;;;14.50;99.90;;;;;;5109900;28;20409;-67
2023/10/12 12:24:22;;;;;;;0.20;0.20;;;14.50;99.90;;;;;;5084481;28;20036;-68
2023/10/12 12:26:53;;;;;;;0.00;0.00;;;14.50;99.90;;;;;;5116249;27;20094;-68
2023/10/12 12:29:37;;;;;;;0.93;0.20;;;14.40;99.90;;;;;;5124716;27;20050;-69
2023/10/12 12:32:03;;;;;;;0.08;0.08;;;14.40;99.90;;;;;;5091437;28;20036;-69
2023/10/12 12:34:38;;;;;;;0.10;0.10;;;14.40;99.90;;;;;;5090427;28;20101;-68
2023/10/12 12:37:05;;;;;;;0.00;0.00;;;14.30;99.90;;;;;;5093352;28;20126;-68
2023/10/12 12:39:34;;;;;;;0.22;0.22;;;14.20;99.90;;;;;;5091096;28;20504;-69
2023/10/12 12:42:09;;;;;;;0.40;0.40;;;14.20;99.90;;;;;;5092948;28;20066;-69
2023/10/12 12:44:34;;;;;;;0.10;0.10;;;14.10;99.90;;;;;;5091165;28;20513;-69
2023/10/12 12:47:01;;;;;;;0.00;0.00;;;14.10;99.90;;;;;;5088704;28;20122;-69
2023/10/12 12:49:29;;;;;;;0.08;0.08;;;14.10;99.90;;;;;;5083322;28;20135;-69
2023/10/12 12:51:57;;;;;;;0.20;0.20;;;14.10;99.90;;;;;;5106526;28;20059;-68
2023/10/12 12:54:26;;;;;;;0.00;0.00;;;14.10;99.90;;;;;;5077228;28;20037;-69
2023/10/12 12:56:54;;;;;;;0.10;0.10;;;14.00;99.90;;;;;;5091910;28;20114;-69
2023/10/12 12:59:21;;;;;;;0.30;0.30;;;14.10;99.90;;;;;;5090482;28;20039;-69
2023/10/12 13:01:47;;;;;;;0.05;0.05;;;14.00;99.90;;;;;;5089423;28;20057;-68
2023/10/12 13:04:14;;;;;;;0.52;0.52;;;14.00;99.90;;;;;;5124157;27;20367;-69
2023/10/12 13:06:39;;;;;;;0.43;0.43;;;13.90;99.90;;;;;;5092686;28;20058;-70
2023/10/12 13:09:05;;;;;;;0.17;0.17;;;13.90;99.90;;;;;;5087734;28;20039;-68
2023/10/12 13:11:33;;;;;;;0.00;0.00;;;13.90;99.90;;;;;;5072406;28;20036;-68
2023/10/12 13:13:58;;;;;;;0.10;0.10;;;13.90;99.90;;;;;;5091121;28;20130;-68
2023/10/12 13:16:24;;;;;;;0.30;0.30;;;13.90;99.90;;;;;;5092385;28;20511;-68
2023/10/12 13:18:49;;;;;;;0.80;0.38;;;13.80;99.90;;;;;;5091075;28;20047;-68
2023/10/12 13:21:16;;;;;;;0.10;0.10;;;13.90;99.90;;;;;;5091307;28;20537;-68
2023/10/12 13:23:42;;;;;;;0.10;0.10;;;13.80;99.90;;;;;;5083731;28;20058;-67
2023/10/12 13:26:09;;;;;;;0.00;0.00;;;13.80;99.90;;;;;;5119894;28;20118;-67
2023/10/12 13:28:37;;;;;;;0.38;0.38;;;13.70;99.90;;;;;;5081996;28;20040;-68
2023/10/12 13:31:05;;;;;;;0.00;0.00;;;13.70;99.90;;;;;;5087931;28;20044;-68
2023/10/12 13:33:31;;;;;;;0.20;0.20;;;13.70;99.90;;;;;;5119227;28;20115;-68
2023/10/12 13:35:57;;;;;;;0.73;0.45;;;13.70;99.90;;;;;;5087554;28;20040;-68
2023/10/12 13:38:22;;;;;;;0.20;0.20;;;13.70;99.90;;;;;;5081336;28;20072;-68
2023/10/12 13:40:50;;;;;;;3.60;0.20;;;13.70;99.90;;;;;;5088683;28;20140;-68
2023/10/12 13:43:21;;;;;;;0.10;0.10;;;13.70;99.90;;;;;;5076301;28;20043;-68
2023/10/12 13:45:52;;;;;;;0.10;0.10;;;13.70;99.90;;;;;;5104982;28;20087;-68
2023/10/12 13:48:25;;;;;;;0.00;0.00;;;13.70;99.90;;;;;;5110719;28;20693;-68
2023/10/12 13:51:08;;;;;;;0.10;0.10;;;13.70;99.90;;;;;;5108851;27;20394;-68
2023/10/12 13:53:38;;;;;;;0.10;0.10;;;13.60;99.90;;;;;;5076901;28;20062;-68
2023/10/12 13:56:08;;;;;;;0.10;0.10;;;13.70;99.90;;;;;;5062387;28;20139;-68
2023/10/12 13:58:47;;;;;;;0.28;0.17;;;13.70;99.90;;;;;;5109131;28;20048;-67
2023/10/12 14:01:15;;;;;;;0.00;0.00;;;13.60;99.90;;;;;;5119678;28;20123;-68
2023/10/12 14:03:44;;;;;;;0.20;0.20;;;13.60;99.90;;;;;;5082683;28;20031;-68
2023/10/12 14:06:13;;;;;;;0.60;0.15;;;13.60;99.90;;;;;;5113395;28;20041;-68
2023/10/12 14:08:42;;;;;;;0.20;0.20;;;13.50;99.90;;;;;;5079397;28;20044;-68
2023/10/12 14:11:14;;;;;;;0.10;0.10;;;13.50;99.90;;;;;;5117877;28;20088;-68
2023/10/12 14:13:39;;;;;;;0.00;0.00;;;13.50;99.90;;;;;;5080846;28;20052;-68
2023/10/12 14:16:10;;;;;;;0.10;0.10;;;13.50;99.90;;;;;;5075514;28;20367;-68
2023/10/12 14:18:39;;;;;;;0.65;0.08;;;13.50;99.90;;;;;;5089216;28;20067;-68
2023/10/12 14:21:10;;;;;;;5.03;0.20;;;13.50;99.90;;;;;;5084259;28;20043;-69
2023/10/12 14:23:40;;;;;;;0.10;0.10;;;13.50;99.90;;;;;;5118438;27;20262;-69
2023/10/12 14:26:06;;;;;;;0.10;0.10;;;13.50;99.90;;;;;;5087334;28;20509;-69
2023/10/12 14:28:34;;;;;;;0.00;0.00;;;13.50;99.90;;;;;;5080938;28;20035;-68
2023/10/12 14:31:00;;;;;;;2.13;0.65;;;13.50;99.90;;;;;;5082482;28;20039;-68
2023/10/12 14:33:30;;;;;;;0.10;0.10;;;13.40;99.90;;;;;;5070477;28;20023;-68
2023/10/12 14:35:56;;;;;;;0.00;0.00;;;13.40;99.90;;;;;;5123863;27;20248;-68